Amston, Connecticut
Current Conditions -  °F | °C
As of 4:52 PM on Thursday 27 Nov 2014 (Local Time) from KIJD Reporting Station
Light Snow Light Snow  
Wind Chill: 35°   Ceiling: 2100
Heat Index: 35°   Visibility: 8mi
Dew Point: 29°   Wind: 0mph
Humidity: 78%   Direction: NA
Pressure: 29.98"   Gusts: NA
Location:  41.63°N, 72.34°W
Report Text: KIJD 272152Z AUTO 00000KT 8SM -SN OVC021 02/M02 A2998 RMK AO2 SNB2057E07B35 SLP154 P0000 T00171017
Loading
Personal Weather Stations






























Interactive Weather Map New forecast layout! Learn more

10-Day Weather Forecast

Advertisements
Track Severe Weather on mobile